createdAt,value
2022-10-22T00:00:17.050Z,10.68
2022-10-22T00:02:45.190Z,10.65
2022-10-22T00:05:13.054Z,9.68
2022-10-22T00:07:41.424Z,10.02
2022-10-22T00:10:10.571Z,10.20
2022-10-22T00:12:40.215Z,9.63
2022-10-22T00:15:10.901Z,9.13
2022-10-22T00:17:39.890Z,9.75
2022-10-22T00:20:09.295Z,9.32
2022-10-22T00:22:37.217Z,9.88
2022-10-22T00:25:05.480Z,10.68
2022-10-22T00:27:33.903Z,9.70
2022-10-22T00:30:02.096Z,9.77
2022-10-22T00:32:32.036Z,10.60
2022-10-22T00:35:00.097Z,10.18
2022-10-22T00:37:28.147Z,10.07
2022-10-22T00:39:57.391Z,9.82
2022-10-22T00:42:27.182Z,10.00
2022-10-22T00:45:23.383Z,10.15
2022-10-22T00:47:57.693Z,9.52
2022-10-22T00:50:29.317Z,9.88
2022-10-22T00:52:58.597Z,9.77
2022-10-22T05:23:07.511Z,8.45
2022-10-22T06:04:46.717Z,8.60
2022-10-22T06:07:19.401Z,9.45
2022-10-22T06:10:28.116Z,8.68
2022-10-22T06:14:24.439Z,8.45
2022-10-22T06:28:34.707Z,9.40
2022-10-22T06:31:44.010Z,8.63
2022-10-22T06:34:23.319Z,8.40
2022-10-22T06:36:51.813Z,8.25
2022-10-22T06:40:24.520Z,9.13
2022-10-22T06:43:06.968Z,9.38
2022-10-22T06:45:40.928Z,8.25
2022-10-22T06:48:10.770Z,9.23
2022-10-22T06:51:11.803Z,9.10
2022-10-22T06:53:52.388Z,8.32
2022-10-22T06:56:30.943Z,8.65
2022-10-22T06:59:33.397Z,8.45
2022-10-22T07:02:23.371Z,8.95
2022-10-22T07:04:56.547Z,8.50
2022-10-22T07:07:38.504Z,8.73
2022-10-22T07:10:13.038Z,9.23
2022-10-22T07:12:53.284Z,8.25
2022-10-22T07:15:22.584Z,8.52
2022-10-22T08:19:35.421Z,9.00
2022-10-22T08:22:47.691Z,9.15
2022-10-22T08:26:16.733Z,9.23
2022-10-22T08:29:18.426Z,9.35
2022-10-22T09:30:52.811Z,9.35
2022-10-22T09:55:11.457Z,10.52
2022-10-22T09:57:42.290Z,9.48
2022-10-22T10:03:36.032Z,9.57
2022-10-22T10:04:44.615Z,9.25
2022-10-22T10:07:39.645Z,9.05
2022-10-22T10:13:23.957Z,10.23
2022-10-22T10:17:15.822Z,10.23
2022-10-22T10:20:03.987Z,10.23
2022-10-22T10:24:38.746Z,10.00
2022-10-22T10:26:38.055Z,10.50
2022-10-22T10:29:42.596Z,10.05
2022-10-22T10:32:52.952Z,10.60
2022-10-22T10:35:50.224Z,10.15
2022-10-22T10:38:29.621Z,10.48
2022-10-22T10:41:03.547Z,10.73
2022-10-22T10:43:44.895Z,11.18
2022-10-22T10:46:18.599Z,10.93
2022-10-22T10:48:58.992Z,11.25
2022-10-22T10:51:38.227Z,10.98
2022-10-22T10:54:18.953Z,10.25
2022-10-22T10:56:49.103Z,11.13
2022-10-22T10:59:20.793Z,10.43
2022-10-22T11:02:01.069Z,11.00
2022-10-22T11:04:50.443Z,10.45
2022-10-22T11:07:34.095Z,11.05
2022-10-22T11:10:06.740Z,10.73
2022-10-22T11:12:36.480Z,11.55
2022-10-22T11:15:09.883Z,11.10
2022-10-22T11:17:41.415Z,10.95
2022-10-22T11:20:16.255Z,11.18
2022-10-22T11:23:13.516Z,10.73
2022-10-22T11:25:40.312Z,10.83
2022-10-22T11:28:13.148Z,11.07
2022-10-22T11:30:43.036Z,11.75
2022-10-22T11:33:16.137Z,11.85
2022-10-22T11:35:45.464Z,10.77
2022-10-22T11:38:16.671Z,11.00
2022-10-22T11:40:47.908Z,11.17
2022-10-22T11:43:28.380Z,11.60
2022-10-22T11:46:02.663Z,11.00
2022-10-22T11:48:37.910Z,11.73
2022-10-22T11:51:34.160Z,12.05
2022-10-22T11:54:03.532Z,12.13
2022-10-22T11:56:38.438Z,11.82
2022-10-22T11:59:15.161Z,11.52
2022-10-22T12:01:44.115Z,12.27
2022-10-22T12:04:23.280Z,11.10
2022-10-22T12:06:55.141Z,11.65
2022-10-22T12:09:26.060Z,11.65
2022-10-22T12:11:53.716Z,12.18
2022-10-22T12:14:26.589Z,11.48
2022-10-22T12:16:57.700Z,11.27
2022-10-22T12:19:29.396Z,11.48
2022-10-22T12:21:59.620Z,11.98
2022-10-22T12:24:31.747Z,11.57
2022-10-22T12:29:28.584Z,11.85
2022-10-22T12:31:57.712Z,11.77
2022-10-22T12:34:29.353Z,12.05
2022-10-22T12:36:57.005Z,11.55
2022-10-22T12:39:27.677Z,11.98
2022-10-22T12:41:56.136Z,12.00
2022-10-22T12:44:23.823Z,12.35
2022-10-22T12:46:55.971Z,12.27
2022-10-22T12:49:29.575Z,12.45
2022-10-22T12:51:57.303Z,12.50
2022-10-22T12:54:27.442Z,12.20
2022-10-22T12:56:56.414Z,12.02
2022-10-22T12:59:26.595Z,11.73
2022-10-22T13:01:55.128Z,11.68
2022-10-22T13:04:34.784Z,12.27
2022-10-22T13:07:18.462Z,12.30
2022-10-22T13:09:58.962Z,12.43
2022-10-22T13:12:27.884Z,12.23
2022-10-22T13:14:55.724Z,11.82
2022-10-22T13:17:41.555Z,11.88
2022-10-22T13:20:20.336Z,12.30
2022-10-22T13:22:58.060Z,11.80
2022-10-22T13:25:27.716Z,11.73
2022-10-22T13:27:57.033Z,11.90
2022-10-22T13:30:26.963Z,11.25
2022-10-22T13:32:56.277Z,12.23
2022-10-22T13:35:27.781Z,12.25
2022-10-22T13:37:55.600Z,12.50
2022-10-22T13:40:23.263Z,12.13
2022-10-22T13:42:51.024Z,12.48
2022-10-22T13:45:19.113Z,11.80
2022-10-22T13:47:50.911Z,11.75
2022-10-22T13:50:20.347Z,12.18
2022-10-22T13:52:52.175Z,12.52
2022-10-22T13:55:22.234Z,12.18
2022-10-22T13:57:50.568Z,11.75
2022-10-22T14:00:20.211Z,12.18
2022-10-22T14:02:49.531Z,11.00
2022-10-22T14:05:17.969Z,11.50
2022-10-22T14:07:46.325Z,11.45
2022-10-22T14:10:20.545Z,11.57
2022-10-22T14:12:52.416Z,12.20
2022-10-22T14:15:24.309Z,12.30
2022-10-22T14:17:55.563Z,12.07
2022-10-22T14:20:25.584Z,12.50
2022-10-22T14:22:53.506Z,11.57
2022-10-22T14:25:24.117Z,11.98
2022-10-22T14:27:52.213Z,11.80
2022-10-22T14:30:21.944Z,11.88
2022-10-22T14:32:49.997Z,11.18
2022-10-22T14:35:19.426Z,12.00
2022-10-22T14:37:47.562Z,11.52
2022-10-22T14:40:16.900Z,11.18
2022-10-22T14:42:47.977Z,12.07
2022-10-22T14:45:18.921Z,11.88
2022-10-22T14:47:46.631Z,11.50
2022-10-22T14:50:14.612Z,11.18
2022-10-22T14:52:44.081Z,11.68
2022-10-22T14:55:12.349Z,12.20
2022-10-22T14:57:40.776Z,12.10
2022-10-22T15:00:17.645Z,12.30
2022-10-22T15:02:45.789Z,12.05
2022-10-22T15:05:13.599Z,11.55
2022-10-22T15:07:41.859Z,12.50
2022-10-22T15:10:10.662Z,11.68
2022-10-22T17:58:23.021Z,15.55
2022-10-22T18:00:52.041Z,15.75
2022-10-22T18:03:21.042Z,15.77
2022-10-22T18:05:48.674Z,16.45
2022-10-22T18:08:16.573Z,16.42
2022-10-22T18:10:44.300Z,16.38
2022-10-22T18:13:12.186Z,15.82
2022-10-22T18:15:40.100Z,14.98
2022-10-22T18:18:09.422Z,14.95
2022-10-22T18:20:37.203Z,16.08
2022-10-22T18:23:05.145Z,15.88
2022-10-22T18:25:32.972Z,16.52
2022-10-22T18:28:00.805Z,15.65
2022-10-22T18:30:28.703Z,14.20
2022-10-22T18:32:56.593Z,14.60
2022-10-22T18:35:25.841Z,13.13
2022-10-22T18:37:53.520Z,13.65
2022-10-22T18:40:21.142Z,13.07
2022-10-22T18:42:48.821Z,12.43
2022-10-22T18:45:16.528Z,13.48
2022-10-22T18:47:44.525Z,12.63
2022-10-22T18:50:12.187Z,13.45
2022-10-22T18:52:41.573Z,13.32
2022-10-22T18:55:09.954Z,14.85
2022-10-22T18:57:37.730Z,14.43
2022-10-22T19:00:06.881Z,15.63
2022-10-22T19:02:34.518Z,14.10
2022-10-22T19:05:02.173Z,13.20
2022-10-22T19:07:29.868Z,13.05
2022-10-22T19:10:00.753Z,18.45
2022-10-22T19:12:28.444Z,19.70
2022-10-22T19:14:56.753Z,16.17
2022-10-22T19:17:24.415Z,16.88
2022-10-22T19:19:52.155Z,13.63
2022-10-22T19:22:20.890Z,14.13
2022-10-22T19:24:49.798Z,12.05
2022-10-22T19:27:19.632Z,15.15
2022-10-22T19:29:49.389Z,12.60
2022-10-22T19:32:19.822Z,10.82
2022-10-22T19:34:47.809Z,12.27
2022-10-22T19:37:15.677Z,12.20
2022-10-22T19:39:43.440Z,12.13
2022-10-22T19:42:11.322Z,11.70
2022-10-22T19:44:40.603Z,11.88
2022-10-22T19:47:09.582Z,13.68
2022-10-22T19:49:37.294Z,14.00
2022-10-22T19:52:05.302Z,15.98
2022-10-22T19:54:33.044Z,16.42
2022-10-22T19:59:34.452Z,14.82
2022-10-22T20:02:03.560Z,15.57
2022-10-22T20:04:31.342Z,15.52
2022-10-22T20:07:02.706Z,15.82
2022-10-22T20:09:31.075Z,14.23
2022-10-22T20:11:59.600Z,16.55
2022-10-22T20:14:27.972Z,13.27
2022-10-22T20:16:56.208Z,15.25
2022-10-22T20:19:28.861Z,13.48
2022-10-22T20:21:56.963Z,14.38
2022-10-22T20:24:24.853Z,14.02
2022-10-22T20:26:52.846Z,13.65
2022-10-22T20:29:21.119Z,12.57
2022-10-22T20:31:52.203Z,12.63
2022-10-22T20:34:20.738Z,12.82
2022-10-22T20:36:50.442Z,13.35
2022-10-22T20:39:19.033Z,13.20
2022-10-22T20:41:47.048Z,12.20
2022-10-22T20:44:17.027Z,12.50
2022-10-22T20:46:45.336Z,13.43
2022-10-22T20:49:15.048Z,15.00
2022-10-22T20:51:42.917Z,14.38
2022-10-22T20:54:12.477Z,12.77
2022-10-22T20:56:41.235Z,11.73
2022-10-22T20:59:10.870Z,12.50
2022-10-22T21:01:40.294Z,12.52
2022-10-22T21:04:08.206Z,13.00
2022-10-22T21:06:38.191Z,12.45
2022-10-22T21:09:07.223Z,12.18
2022-10-22T21:11:37.164Z,12.00
2022-10-22T21:14:05.579Z,12.00
2022-10-22T21:16:33.593Z,11.68
2022-10-22T21:19:01.875Z,11.30
2022-10-22T21:21:29.801Z,10.52
2022-10-22T21:23:57.710Z,10.85
2022-10-22T21:26:25.376Z,9.90
2022-10-22T21:28:54.510Z,10.57
2022-10-22T21:31:26.386Z,10.18
2022-10-22T21:33:55.735Z,9.68
2022-10-22T21:36:26.036Z,10.30
2022-10-22T21:38:55.551Z,10.07
2022-10-22T21:41:25.845Z,9.90
2022-10-22T21:43:55.514Z,11.45
2022-10-22T21:46:25.800Z,10.95
2022-10-22T21:48:54.724Z,10.73
2022-10-22T21:51:23.978Z,10.55
2022-10-22T21:56:26.497Z,10.88
2022-10-22T21:58:55.648Z,10.73
2022-10-22T22:01:24.086Z,10.40
2022-10-22T22:03:52.393Z,10.50
2022-10-22T22:06:22.089Z,11.07
2022-10-22T22:08:51.214Z,10.90
2022-10-22T22:11:21.001Z,11.02
2022-10-22T22:13:49.475Z,10.38
2022-10-22T22:16:22.554Z,10.98
2022-10-22T22:18:53.334Z,11.65
2022-10-22T22:21:22.307Z,11.68
2022-10-22T22:23:50.942Z,11.63
2022-10-22T22:26:25.295Z,11.68
2022-10-22T22:28:56.412Z,11.70
2022-10-22T22:31:26.866Z,13.00
2022-10-22T22:33:59.238Z,12.45
2022-10-22T22:36:26.886Z,12.35
2022-10-22T22:38:55.455Z,11.27
2022-10-22T22:41:23.404Z,11.73
2022-10-22T22:43:51.157Z,12.48
2022-10-22T22:46:18.857Z,12.05
2022-10-22T22:48:50.394Z,11.48
2022-10-22T22:51:18.837Z,13.20
2022-10-22T22:53:46.614Z,12.80
2022-10-22T22:56:16.715Z,11.98
2022-10-22T22:58:44.844Z,11.75
2022-10-22T23:01:15.285Z,11.52
2022-10-22T23:03:43.436Z,11.93
2022-10-22T23:06:12.949Z,10.73
2022-10-22T23:08:41.604Z,11.68
2022-10-22T23:11:10.841Z,10.90
2022-10-22T23:13:39.585Z,10.80
2022-10-22T23:16:08.298Z,10.80
2022-10-22T23:18:36.204Z,11.55
2022-10-22T23:21:07.546Z,10.75
2022-10-22T23:23:36.843Z,10.63
2022-10-22T23:26:05.063Z,11.60
2022-10-22T23:28:34.598Z,11.82
2022-10-22T23:31:05.211Z,14.13
2022-10-22T23:33:33.389Z,12.15
2022-10-22T23:36:01.817Z,12.30
2022-10-22T23:38:29.495Z,12.70
2022-10-22T23:40:58.520Z,11.48
2022-10-22T23:43:26.560Z,11.65
2022-10-22T23:45:54.840Z,11.57
2022-10-22T23:48:23.069Z,11.13
2022-10-22T23:50:51.158Z,11.50
2022-10-22T23:53:18.957Z,11.80
2022-10-22T23:55:46.819Z,11.35
2022-10-22T23:58:16.049Z,10.63
